Time;durP1;ratioP1;P1;durP2;ratioP2;P2;SDS_P1;SDS_P2;PMS_P1;PMS_P2;Temp;Humidity;BMP_temperature;BMP_pressure;BME280_temperature;BME280_humidity;BME280_pressure;Samples;Min_cycle;Max_cycle;Signal;HPM_P1;HPM_P2
2022/05/14 00:01:34;;;;;;;11.20;6.87;;;;;;;11.06;67.96;100297.00;1673242;85;25663;-66
2022/05/14 00:04:00;;;;;;;8.90;6.78;;;;;;;11.03;68.18;100301.15;1673184;85;25671;-67
2022/05/14 00:06:28;;;;;;;8.80;6.22;;;;;;;11.00;67.98;100300.41;1673143;85;28139;-67
2022/05/14 00:08:56;;;;;;;6.35;5.70;;;;;;;10.99;67.99;100295.30;1673083;85;25649;-67
2022/05/14 00:14:10;;;;;;;7.60;6.58;;;;;;;10.96;68.04;100295.92;1673077;85;25638;-68
2022/05/14 00:16:38;;;;;;;9.13;6.17;;;;;;;10.93;67.96;100306.02;1673243;85;25425;-68
2022/05/14 00:19:08;;;;;;;8.58;6.20;;;;;;;10.92;68.04;100308.49;1673101;84;27498;-66
2022/05/14 00:21:35;;;;;;;;;;;;;;;10.90;68.15;100309.36;1675593;85;25704;-66
2022/05/14 00:24:04;;;;;;;9.10;6.60;;;;;;;10.86;68.25;100309.72;1673090;85;25471;-68
2022/05/14 00:26:31;;;;;;;13.38;6.85;;;;;;;10.82;68.29;100314.39;1644474;87;26234;-66
2022/05/14 00:28:59;;;;;;;10.65;7.25;;;;;;;10.79;68.58;100312.30;1644392;87;25657;-66
2022/05/14 00:31:27;;;;;;;12.78;8.08;;;;;;;10.75;68.58;100311.34;1673129;85;27988;-67
2022/05/14 00:33:53;;;;;;;13.65;8.08;;;;;;;10.73;68.57;100316.27;1644267;87;25559;-67
2022/05/14 00:36:19;;;;;;;13.08;7.58;;;;;;;10.73;68.65;100315.47;1673141;85;25626;-67
2022/05/14 00:38:45;;;;;;;11.43;7.25;;;;;;;10.69;68.67;100319.89;1645750;86;25639;-67
2022/05/14 00:41:12;;;;;;;11.10;6.97;;;;;;;10.68;68.55;100319.66;1673091;85;25485;-67
2022/05/14 00:43:55;;;;;;;20.95;7.67;;;;;;;10.68;68.67;100321.02;1673183;85;27407;-67
2022/05/14 00:46:42;;;;;;;10.50;7.05;;;;;;;10.65;68.65;100321.06;1673028;85;25408;-67
2022/05/14 00:49:10;;;;;;;8.75;7.05;;;;;;;10.64;68.73;100315.39;1673171;85;25631;-67
2022/05/14 00:51:37;;;;;;;11.22;6.75;;;;;;;10.60;68.63;100307.09;1673061;85;25614;-67
2022/05/14 00:54:12;;;;;;;11.40;6.92;;;;;;;10.58;68.82;100312.02;1673106;85;25542;-67
2022/05/14 00:56:50;;;;;;;9.58;6.75;;;;;;;10.57;68.79;100310.45;1673050;85;27399;-67
2022/05/14 00:59:21;;;;;;;12.05;6.28;;;;;;;10.55;68.95;100311.28;1672209;85;25932;-66
2022/05/14 01:01:48;;;;;;;9.40;6.87;;;;;;;10.53;68.95;100309.45;1672451;85;25635;-67
2022/05/14 01:04:17;;;;;;;9.75;5.90;;;;;;;10.53;69.01;100308.66;1673054;85;26300;-66
2022/05/14 01:07:07;;;;;;;9.25;6.45;;;;;;;10.52;68.90;100316.52;1673139;85;25420;-66
2022/05/14 01:09:38;;;;;;;11.35;5.92;;;;;;;10.49;68.89;100315.23;1673066;85;27330;-66
2022/05/14 01:12:06;;;;;;;9.35;6.25;;;;;;;10.48;69.07;100312.84;1673056;85;25477;-66
2022/05/14 01:14:33;;;;;;;10.40;5.78;;;;;;;10.48;69.11;100313.62;1673293;85;25636;-66
2022/05/14 01:17:00;;;;;;;8.35;6.37;;;;;;;10.49;69.29;100321.17;1672985;85;27882;-66
2022/05/14 01:19:27;;;;;;;9.60;6.40;;;;;;;10.48;69.39;100312.27;1673041;84;25411;-67
2022/05/14 01:22:14;;;;;;;10.10;6.87;;;;;;;10.49;69.62;100311.18;1673105;85;27481;-67
2022/05/14 01:27:40;;;;;;;10.63;6.97;;;;;;;10.48;69.56;100306.08;1673325;85;25604;-68
2022/05/14 01:30:09;;;;;;;12.13;6.45;;;;;;;10.49;69.50;100306.30;1673034;85;26288;-68
2022/05/14 01:32:35;;;;;;;8.28;6.28;;;;;;;10.49;69.50;100304.95;1673211;85;25570;-68
2022/05/14 01:35:02;;;;;;;9.88;6.58;;;;;;;10.46;69.56;100304.47;1673046;85;27320;-67
2022/05/14 01:37:28;;;;;;;12.20;6.90;;;;;;;10.45;69.50;100302.89;1672982;85;25629;-67
2022/05/14 01:39:55;;;;;;;7.37;6.10;;;;;;;10.45;69.51;100299.36;1673072;85;25568;-67
2022/05/14 01:42:21;;;;;;;9.38;6.87;;;;;;;10.45;69.58;100296.66;1673028;85;25616;-67
2022/05/14 01:44:47;;;;;;;8.23;6.50;;;;;;;10.44;69.45;100302.63;1673090;85;25480;-67
2022/05/14 01:47:14;;;;;;;10.68;6.87;;;;;;;10.44;69.40;100311.30;1673086;85;27315;-67
2022/05/14 01:49:40;;;;;;;12.88;6.95;;;;;;;10.42;69.47;100302.67;1673011;85;25571;-67
2022/05/14 01:52:08;;;;;;;12.00;7.42;;;;;;;10.37;69.40;100296.86;1673056;85;25469;-66
2022/05/14 01:54:34;;;;;;;7.65;6.55;;;;;;;10.36;69.55;100302.57;1672984;85;25676;-67
2022/05/14 01:57:00;;;;;;;9.23;6.58;;;;;;;10.32;70.10;100299.69;1673111;85;25634;-67
2022/05/14 01:59:27;;;;;;;8.10;6.92;;;;;;;10.30;69.92;100305.93;1673105;85;27341;-67
2022/05/14 02:01:53;;;;;;;9.93;7.00;;;;;;;10.27;69.69;100306.53;1672966;85;25574;-67
2022/05/14 02:04:20;;;;;;;10.98;6.90;;;;;;;10.24;70.06;100304.44;1673079;85;25608;-66
2022/05/14 02:06:46;;;;;;;10.30;7.67;;;;;;;10.22;70.07;100305.30;1673045;85;25772;-66
2022/05/14 02:09:13;;;;;;;9.98;7.17;;;;;;;10.18;70.22;100303.77;1673052;85;25573;-66
2022/05/14 02:11:42;;;;;;;10.35;7.60;;;;;;;10.17;70.17;100312.97;1673048;85;28110;-66
2022/05/14 02:14:10;;;;;;;10.20;7.28;;;;;;;10.15;70.24;100311.13;1672922;85;25692;-66
2022/05/14 02:16:36;;;;;;;11.55;7.65;;;;;;;10.14;70.21;100316.84;1673150;85;25654;-66
2022/05/14 02:19:04;;;;;;;10.58;7.83;;;;;;;10.12;70.61;100321.19;1672833;84;27904;-66
2022/05/14 02:21:32;;;;;;;8.43;7.28;;;;;;;10.10;70.67;100319.36;1664651;85;25594;-67
2022/05/14 02:24:00;;;;;;;10.05;7.78;;;;;;;10.07;70.72;100319.95;1664558;86;27327;-67
2022/05/14 02:26:27;;;;;;;10.10;7.83;;;;;;;10.05;70.78;100312.15;1664522;86;25719;-67
2022/05/14 02:28:53;;;;;;;8.75;7.85;;;;;;;10.04;70.76;100309.75;1664593;85;25419;-67
2022/05/14 02:31:19;;;;;;;10.08;8.38;;;;;;;10.03;71.05;100308.96;1664572;86;25693;-67
2022/05/14 02:33:45;;;;;;;9.93;8.50;;;;;;;10.03;70.95;100306.82;1664586;86;25571;-67
2022/05/14 02:36:11;;;;;;;10.98;7.90;;;;;;;10.00;71.01;100297.96;1664702;85;27303;-66
2022/05/14 02:38:39;;;;;;;13.88;8.43;;;;;;;10.00;71.10;100300.66;1664558;85;33062;-67
2022/05/14 02:41:06;;;;;;;12.07;8.53;;;;;;;9.99;71.36;100310.66;1664533;86;25484;-66
2022/05/14 02:43:33;;;;;;;11.10;8.13;;;;;;;9.98;71.29;100304.23;1664527;86;25701;-66
2022/05/14 02:46:02;;;;;;;11.22;8.08;;;;;;;9.96;71.56;100302.36;1664570;85;25426;-67
2022/05/14 02:48:29;;;;;;;9.95;7.78;;;;;;;9.97;71.81;100310.17;1664417;85;27319;-66
2022/05/14 02:50:57;;;;;;;11.73;8.30;;;;;;;9.98;71.92;100310.98;1664554;85;25710;-66
2022/05/14 02:53:24;;;;;;;11.70;8.40;;;;;;;9.99;71.96;100305.81;1664557;86;25433;-67
2022/05/14 02:55:51;;;;;;;9.65;8.10;;;;;;;10.00;72.14;100306.86;1664473;85;26218;-66
2022/05/14 02:59:06;;;;;;;8.33;7.45;;;;;;;10.01;72.08;100305.77;1664542;86;25454;-66
2022/05/14 03:00:46;;;;;;;11.85;8.80;;;;;;;10.03;72.01;100306.25;1662984;86;27405;-67
2022/05/14 03:03:12;;;;;;;9.78;8.23;;;;;;;10.05;72.17;100301.91;1664554;85;33506;-66
2022/05/14 03:05:38;;;;;;;12.25;8.08;;;;;;;10.05;72.10;100304.60;1664667;85;25628;-66
2022/05/14 03:08:04;;;;;;;14.15;8.28;;;;;;;10.08;72.19;100310.76;1664624;85;35225;-66
2022/05/14 03:10:30;;;;;;;13.68;7.85;;;;;;;10.09;72.14;100321.23;1664731;85;25540;-66
2022/05/14 03:12:56;;;;;;;11.75;8.53;;;;;;;10.13;72.25;100323.33;1664666;85;28060;-67
2022/05/14 03:15:23;;;;;;;11.63;8.78;;;;;;;10.14;72.27;100322.24;1664565;85;33231;-67
2022/05/14 03:17:49;;;;;;;12.65;9.45;;;;;;;10.13;72.39;100318.75;1664702;85;25490;-67
2022/05/14 03:20:15;;;;;;;12.53;9.15;;;;;;;10.14;72.25;100316.84;1667864;84;25683;-67
2022/05/14 03:22:42;;;;;;;12.07;8.70;;;;;;;10.15;72.39;100313.02;1673216;85;25656;-67
2022/05/14 03:25:10;;;;;;;12.68;9.03;;;;;;;10.17;72.41;100310.27;1673135;85;27282;-67
2022/05/14 03:27:37;;;;;;;13.05;8.58;;;;;;;10.21;72.53;100318.56;1673047;85;25748;-67
2022/05/14 03:30:05;;;;;;;10.25;8.75;;;;;;;10.23;72.68;100314.46;1673131;85;25490;-67
2022/05/14 03:32:31;;;;;;;11.10;9.08;;;;;;;10.26;72.58;100312.47;1673139;85;25887;-67
2022/05/14 03:35:00;;;;;;;9.60;7.65;;;;;;;10.32;72.57;100317.26;1673158;85;32766;-67
2022/05/14 03:37:25;;;;;;;11.88;8.00;;;;;;;10.34;72.44;100315.04;1673023;85;27549;-67
2022/05/14 03:39:51;;;;;;;10.10;8.08;;;;;;;10.36;72.41;100317.44;1673096;85;25423;-66
2022/05/14 03:42:18;;;;;;;11.60;7.72;;;;;;;10.37;72.43;100319.84;1673154;85;29692;-66
2022/05/14 03:44:44;;;;;;;12.13;8.33;;;;;;;10.39;72.46;100320.89;1673100;85;25582;-66
2022/05/14 03:47:10;;;;;;;11.18;7.78;;;;;;;10.40;72.41;100327.34;1673130;85;25699;-66
2022/05/14 03:49:37;;;;;;;11.97;7.70;;;;;;;10.43;72.40;100325.92;1673159;85;27389;-66
2022/05/14 03:52:04;;;;;;;10.78;8.03;;;;;;;10.46;72.34;100330.72;1672978;85;25599;-66
2022/05/14 03:54:31;;;;;;;10.72;7.75;;;;;;;10.50;72.44;100343.07;1668838;85;25680;-66
2022/05/14 03:56:58;;;;;;;10.40;7.95;;;;;;;10.53;72.32;100339.20;1645668;87;25634;-67
2022/05/14 03:59:24;;;;;;;13.13;7.40;;;;;;;10.57;72.38;100334.78;1616599;88;25587;-67
2022/05/14 04:01:50;;;;;;;10.98;7.40;;;;;;;10.61;72.25;100328.20;1616606;88;27388;-67
2022/05/14 04:04:16;;;;;;;10.98;7.50;;;;;;;10.70;72.16;100334.46;1616528;88;33012;-67
2022/05/14 04:06:42;;;;;;;11.15;7.00;;;;;;;10.70;72.16;100334.46;1616618;88;25458;-66
2022/05/14 04:09:09;;;;;;;14.03;7.25;;;;;;;10.76;72.17;100335.13;1616564;88;34704;-66
2022/05/14 04:11:35;;;;;;;11.93;7.15;;;;;;;10.82;72.15;100342.02;1616648;88;25608;-66
2022/05/14 04:14:02;;;;;;;11.93;7.37;;;;;;;10.90;72.14;100343.98;1616571;88;27380;-66
2022/05/14 04:16:28;;;;;;;10.10;7.08;;;;;;;10.96;72.04;100337.31;1616507;88;25693;-66
2022/05/14 04:18:55;;;;;;;10.65;6.65;;;;;;;11.00;71.84;100332.89;1616574;88;25497;-66
2022/05/14 04:21:22;;;;;;;9.53;6.87;;;;;;;11.09;71.98;100332.93;1609588;88;26492;-67
2022/05/14 04:23:48;;;;;;;8.23;5.92;;;;;;;11.17;71.81;100330.03;1606712;89;32807;-68
2022/05/14 04:26:14;;;;;;;9.20;6.62;;;;;;;11.23;71.59;100323.92;1606656;88;27386;-68
2022/05/14 04:28:40;;;;;;;10.80;6.95;;;;;;;11.27;71.28;100330.30;1606571;89;33039;-68
2022/05/14 04:31:06;;;;;;;8.43;6.40;;;;;;;11.34;71.41;100328.74;1606639;88;25257;-69
2022/05/14 04:33:32;;;;;;;8.78;6.35;;;;;;;11.39;71.20;100322.37;1606640;89;25671;-68
2022/05/14 04:35:59;;;;;;;10.23;7.00;;;;;;;11.44;71.10;100320.91;1606627;89;25565;-68
2022/05/14 04:38:25;;;;;;;11.33;6.20;;;;;;;11.49;70.91;100321.30;1606663;89;27946;-68
2022/05/14 04:40:52;;;;;;;9.10;6.00;;;;;;;11.51;70.89;100321.23;1606573;88;25719;-67
2022/05/14 04:43:19;;;;;;;10.98;6.40;;;;;;;11.55;70.92;100323.55;1606659;89;25429;-66
2022/05/14 04:45:46;;;;;;;9.40;5.85;;;;;;;11.58;70.72;100321.56;1606593;88;25685;-67
2022/05/14 04:48:12;;;;;;;8.83;5.62;;;;;;;11.61;70.44;100320.12;1606686;89;25512;-68
2022/05/14 04:50:41;;;;;;;9.58;5.40;;;;;;;11.64;70.26;100324.92;1606635;89;28242;-68
2022/05/14 04:53:08;;;;;;;9.65;5.67;;;;;;;11.65;70.20;100322.46;1606561;89;25625;-68
2022/05/14 04:55:34;;;;;;;7.67;5.08;;;;;;;11.67;70.13;100320.23;1606610;89;25530;-66
2022/05/14 04:58:01;;;;;;;7.83;5.83;;;;;;;11.70;70.07;100320.95;1606610;88;25617;-67
2022/05/14 05:00:27;;;;;;;7.45;5.95;;;;;;;11.73;69.89;100318.98;1606648;88;25589;-67
2022/05/14 05:05:38;;;;;;;13.15;5.90;;;;;;;11.83;69.64;100308.94;1606584;89;25627;-68
2022/05/14 05:08:05;;;;;;;6.80;5.45;;;;;;;11.87;69.44;100319.41;1606607;88;29803;-67
2022/05/14 05:10:31;;;;;;;10.43;5.10;;;;;;;11.89;69.22;100319.31;1606587;89;26284;-69
2022/05/14 05:12:57;;;;;;;8.35;5.75;;;;;;;11.93;69.20;100317.59;1606664;89;25465;-69
2022/05/14 05:15:24;;;;;;;10.45;5.50;;;;;;;12.02;69.06;100310.02;1606575;89;28184;-67
2022/05/14 05:17:50;;;;;;;10.23;5.42;;;;;;;12.08;68.92;100319.04;1606536;89;25743;-67
2022/05/14 05:20:18;;;;;;;14.23;5.20;;;;;;;12.14;68.73;100316.42;1607719;88;25498;-68
2022/05/14 05:22:44;;;;;;;7.03;4.90;;;;;;;12.18;68.66;100317.94;1616556;88;25621;-67
2022/05/14 05:25:12;;;;;;;9.20;4.90;;;;;;;12.26;68.68;100327.17;1616623;88;25611;-67
2022/05/14 05:27:38;;;;;;;9.60;5.30;;;;;;;12.27;68.25;100329.56;1616551;88;27394;-68
2022/05/14 05:30:07;;;;;;;8.23;5.50;;;;;;;12.30;67.97;100319.44;1616477;88;25522;-67
2022/05/14 05:32:34;;;;;;;6.78;5.20;;;;;;;12.36;67.43;100310.61;1616701;88;25464;-67
2022/05/14 05:35:01;;;;;;;6.00;4.87;;;;;;;12.36;67.43;100310.61;1616515;88;26173;-69
2022/05/14 05:37:27;;;;;;;9.25;5.08;;;;;;;12.38;67.74;100304.83;1616602;88;25605;-68
2022/05/14 05:39:54;;;;;;;6.92;5.05;;;;;;;12.42;67.75;100300.38;1616560;88;27446;-68
2022/05/14 05:42:20;;;;;;;10.00;4.97;;;;;;;12.45;67.66;100294.31;1616494;88;25449;-68
2022/05/14 05:44:46;;;;;;;11.15;4.85;;;;;;;12.48;67.56;100284.16;1616514;88;25683;-68
2022/05/14 05:47:12;;;;;;;6.90;4.70;;;;;;;12.52;67.50;100289.20;1616531;88;25658;-68
2022/05/14 05:49:40;;;;;;;11.43;5.00;;;;;;;12.58;67.40;100284.38;1616573;88;25438;-68
2022/05/14 05:52:07;;;;;;;8.43;4.60;;;;;;;12.65;67.38;100287.39;1616528;88;27452;-68
2022/05/14 05:57:19;;;;;;;6.90;4.50;;;;;;;12.80;66.80;100281.45;1616589;88;25491;-68
2022/05/14 05:59:44;;;;;;;6.30;4.20;;;;;;;12.87;66.83;100285.84;1616502;88;25716;-68
2022/05/14 06:02:11;;;;;;;8.15;4.65;;;;;;;12.97;66.81;100292.81;1616599;88;25623;-67
2022/05/14 06:04:38;;;;;;;9.75;4.95;;;;;;;13.06;66.47;100281.95;1616532;88;27465;-67
2022/05/14 06:07:04;;;;;;;5.35;4.50;;;;;;;13.16;66.29;100280.77;1616495;88;25668;-67
2022/05/14 06:09:32;;;;;;;8.48;5.08;;;;;;;13.25;66.11;100280.18;1616457;88;25474;-68
2022/05/14 06:11:58;;;;;;;11.18;5.37;;;;;;;13.36;65.86;100282.77;1614978;87;26386;-67
2022/05/14 06:14:25;;;;;;;7.95;4.17;;;;;;;13.41;65.25;100274.43;1638182;86;25774;-68
2022/05/14 06:16:53;;;;;;;7.58;4.60;;;;;;;13.45;65.23;100277.31;1635057;86;27389;-68
2022/05/14 06:19:20;;;;;;;9.40;4.30;;;;;;;13.57;65.13;100290.16;1633937;87;26539;-68
2022/05/14 06:21:46;;;;;;;8.90;3.70;;;;;;;13.75;65.19;100299.02;1618861;88;25673;-68
2022/05/14 06:24:12;;;;;;;9.33;4.28;;;;;;;13.92;65.00;100295.39;1633220;87;25560;-68
2022/05/14 06:26:38;;;;;;;12.88;5.17;;;;;;;14.07;64.39;100286.62;1643352;87;25461;-68
2022/05/14 06:29:06;;;;;;;8.35;4.62;;;;;;;14.19;64.57;100288.61;1628071;87;27330;-68
2022/05/14 06:31:33;;;;;;;5.33;3.55;;;;;;;14.35;63.88;100292.86;1624704;86;25776;-68
2022/05/14 06:33:59;;;;;;;10.95;4.45;;;;;;;14.41;63.50;100284.73;1623983;86;25504;-68
2022/05/14 06:36:26;;;;;;;7.80;3.87;;;;;;;14.50;63.44;100284.08;1636906;86;25824;-68
2022/05/14 06:38:53;;;;;;;8.38;4.08;;;;;;;14.59;63.24;100288.67;1642654;87;25725;-68
2022/05/14 06:41:20;;;;;;;8.98;5.05;;;;;;;14.60;62.75;100290.27;1642684;87;28124;-68
2022/05/14 06:43:46;;;;;;;8.83;3.70;;;;;;;14.66;62.46;100297.08;1642900;87;25453;-68
2022/05/14 06:46:12;;;;;;;7.30;4.33;;;;;;;14.70;62.17;100291.99;1643021;87;29719;-68
2022/05/14 06:48:39;;;;;;;8.03;4.12;;;;;;;14.69;61.67;100293.69;1642970;87;25637;-67
2022/05/14 06:51:14;;;;;;;9.43;3.98;;;;;;;14.68;61.57;100292.90;1643004;87;25431;-68
2022/05/14 06:53:42;;;;;;;5.90;3.95;;;;;;;14.65;60.84;100288.13;1643011;87;28121;-68
2022/05/14 06:56:11;;;;;;;6.50;3.87;;;;;;;14.62;61.09;100299.67;1642932;87;25704;-68
2022/05/14 06:58:40;;;;;;;10.20;4.10;;;;;;;14.54;60.92;100286.38;1643132;87;25598;-67
2022/05/14 07:01:09;;;;;;;8.53;3.85;;;;;;;14.55;61.17;100288.52;1639010;86;25671;-68
2022/05/14 07:06:43;;;;;;;6.47;4.12;;;;;;;14.51;61.08;100292.48;1612611;89;27340;-68
2022/05/14 07:09:17;;;;;;;8.13;3.55;;;;;;;14.49;61.15;100292.02;1612224;89;25489;-68
2022/05/14 07:11:46;;;;;;;6.92;4.12;;;;;;;14.49;61.22;100290.66;1612296;89;25603;-68
2022/05/14 07:14:20;;;;;;;9.13;3.90;;;;;;;14.49;61.02;100293.39;1612365;89;25618;-69
2022/05/14 07:16:45;;;;;;;7.80;4.00;;;;;;;14.47;60.75;100285.31;1611339;89;25434;-69
2022/05/14 07:19:12;;;;;;;7.72;3.45;;;;;;;14.41;60.66;100285.31;1612339;89;27346;-69
2022/05/14 07:21:44;;;;;;;9.10;3.85;;;;;;;14.38;60.85;100288.91;1613190;88;25456;-68
2022/05/14 07:24:15;;;;;;;6.03;2.98;;;;;;;14.37;60.72;100285.97;1615075;88;25660;-69
2022/05/14 07:26:42;;;;;;;6.08;3.52;;;;;;;14.35;60.91;100280.62;1614585;88;25692;-68
2022/05/14 07:29:16;;;;;;;6.50;3.50;;;;;;;14.37;60.82;100283.83;1615113;88;25608;-69
2022/05/14 07:31:43;;;;;;;7.95;3.20;;;;;;;14.35;60.94;100280.62;1593107;88;27963;-69
2022/05/14 07:34:10;;;;;;;9.15;3.20;;;;;;;14.38;61.19;100278.59;1614991;88;25494;-68
2022/05/14 07:36:44;;;;;;;6.97;3.22;;;;;;;14.50;61.58;100270.47;1614948;88;25737;-67
2022/05/14 07:39:12;;;;;;;7.95;3.12;;;;;;;14.70;61.70;100277.59;1615051;88;25636;-66
2022/05/14 07:41:43;;;;;;;10.10;3.27;;;;;;;14.87;61.47;100276.03;1615124;88;25426;-66
2022/05/14 07:44:13;;;;;;;7.97;3.40;;;;;;;15.12;61.76;100287.75;1615037;88;27335;-68
2022/05/14 07:46:40;;;;;;;12.80;4.37;;;;;;;15.38;60.91;100281.17;1615009;88;25556;-71
2022/05/14 07:49:11;;;;;;;9.18;3.58;;;;;;;15.63;60.74;100278.41;1615020;88;25484;-67
2022/05/14 07:51:39;;;;;;;8.33;3.72;;;;;;;15.98;60.29;100275.97;1614992;88;25903;-68
2022/05/14 07:54:07;;;;;;;6.60;3.30;;;;;;;16.19;58.98;100277.72;1591639;88;25685;-70
2022/05/14 07:56:34;;;;;;;8.78;3.30;;;;;;;16.40;58.98;100266.03;1614728;88;27341;-68
2022/05/14 07:59:01;;;;;;;9.33;3.30;;;;;;;16.66;58.55;100263.97;1614510;88;25580;-67
2022/05/14 08:01:27;;;;;;;10.80;3.72;;;;;;;16.87;57.65;100271.36;1614771;88;25713;-67
2022/05/14 08:03:54;;;;;;;9.43;3.30;;;;;;;16.88;56.08;100265.34;1614805;88;26452;-66
2022/05/14 08:06:22;;;;;;;12.95;3.30;;;;;;;16.93;55.73;100260.39;1614889;88;25409;-66
2022/05/14 08:08:49;;;;;;;9.55;3.22;;;;;;;17.13;56.53;100257.76;1614612;88;28137;-67
2022/05/14 08:11:15;;;;;;;8.85;3.05;;;;;;;17.48;55.62;100254.25;1614650;88;25749;-66
2022/05/14 08:13:42;;;;;;;5.50;3.20;;;;;;;17.76;55.74;100261.48;1614832;88;25575;-66
2022/05/14 08:16:08;;;;;;;10.48;3.95;;;;;;;17.94;54.82;100253.69;1614645;88;26301;-66
2022/05/14 08:18:35;;;;;;;8.25;3.62;;;;;;;18.06;54.63;100259.02;1633395;87;25719;-66
2022/05/14 08:24:29;;;;;;;6.28;2.92;;;;;;;18.14;53.98;100258.59;1632720;87;27356;-66
2022/05/14 08:26:14;;;;;;;8.70;3.42;;;;;;;18.19;52.61;100263.19;1624983;87;25677;-66
2022/05/14 08:28:40;;;;;;;6.75;3.58;;;;;;;18.04;51.88;100265.43;1640884;87;25633;-66
2022/05/14 08:31:06;;;;;;;10.08;3.90;;;;;;;17.91;52.07;100253.81;1640799;87;25713;-67
2022/05/14 08:33:32;;;;;;;7.22;3.27;;;;;;;17.87;51.99;100253.75;1640761;87;27420;-67
2022/05/14 08:36:00;;;;;;;9.83;4.00;;;;;;;17.78;51.53;100249.05;1640774;87;25985;-67
2022/05/14 08:38:26;;;;;;;10.38;3.72;;;;;;;17.63;51.70;100242.47;1640867;87;25576;-66
2022/05/14 08:40:58;;;;;;;10.30;3.67;;;;;;;17.41;51.47;100242.58;1640656;87;25723;-66
2022/05/14 08:43:29;;;;;;;7.75;4.03;;;;;;;17.21;51.84;100245.83;1644648;87;25571;-65
2022/05/14 08:45:56;;;;;;;7.05;3.80;;;;;;;17.03;52.05;100248.15;1616456;87;27435;-66
2022/05/14 08:48:34;;;;;;;7.75;4.67;;;;;;;16.84;52.19;100230.27;1617463;88;25681;-67
2022/05/14 08:51:05;;;;;;;10.90;3.50;;;;;;;16.64;52.50;100249.30;1631219;87;26212;-68
2022/05/14 08:53:35;;;;;;;11.53;4.58;;;;;;;16.48;53.22;100252.56;1644501;86;25713;-68
2022/05/14 08:56:22;;;;;;;8.40;4.12;;;;;;;16.41;54.06;100255.91;1629083;87;25890;-68
2022/05/14 08:59:25;;;;;;;11.45;4.87;;;;;;;16.35;54.25;100258.68;1633644;87;27410;-69
2022/05/14 09:02:02;;;;;;;9.08;4.50;;;;;;;16.24;54.77;100259.19;1649970;85;27188;-64
2022/05/14 09:04:29;;;;;;;11.48;4.97;;;;;;;16.13;54.99;100255.93;1661904;85;25473;-66
2022/05/14 09:06:55;;;;;;;8.15;4.85;;;;;;;16.01;55.35;100265.73;1618455;88;27787;-64
2022/05/14 09:09:21;;;;;;;13.90;4.83;;;;;;;15.90;55.87;100262.48;1613589;88;25414;-64
2022/05/14 09:11:59;;;;;;;7.87;4.35;;;;;;;15.78;56.17;100259.21;1641676;87;27393;-65
2022/05/14 09:14:38;;;;;;;8.53;4.00;;;;;;;15.74;56.40;100261.80;1617536;87;25708;-65
2022/05/14 09:17:15;;;;;;;9.45;3.80;;;;;;;15.73;56.81;100258.84;1630519;87;25808;-67
2022/05/14 09:19:44;;;;;;;13.55;4.72;;;;;;;15.84;56.97;100244.99;1650151;85;25696;-66
2022/05/14 09:22:25;;;;;;;9.80;4.08;;;;;;;16.01;56.48;100263.01;1665986;85;25623;-66
2022/05/14 09:25:20;;;;;;;9.08;3.52;;;;;;;16.16;56.99;100244.33;1619384;88;27336;-66
2022/05/14 09:27:57;;;;;;;7.55;3.47;;;;;;;16.50;56.74;100242.90;1648574;86;26087;-67
2022/05/14 09:30:35;;;;;;;7.80;3.92;;;;;;;16.85;55.95;100235.98;1654358;86;25650;-65
2022/05/14 09:33:04;;;;;;;5.60;3.40;;;;;;;17.05;53.52;100248.58;1620038;88;26354;-65
2022/05/14 09:35:34;;;;;;;12.40;3.40;;;;;;;17.24;53.97;100249.80;1648102;87;25635;-65
2022/05/14 09:38:21;;;;;;;9.20;3.40;;;;;;;17.53;54.29;100242.45;1657662;86;27438;-66
2022/05/14 09:40:48;;;;;;;10.88;3.42;;;;;;;17.99;53.33;100251.45;1619774;88;27269;-66
2022/05/14 09:43:22;;;;;;;6.58;3.17;;;;;;;18.24;50.86;100247.06;1633492;86;25452;-65
2022/05/14 09:46:06;;;;;;;6.28;2.77;;;;;;;18.23;49.70;100247.61;1653856;86;25747;-65
2022/05/14 09:48:38;;;;;;;9.58;3.27;;;;;;;18.24;50.05;100248.42;1647221;87;25673;-70
2022/05/14 09:51:09;;;;;;;5.60;3.08;;;;;;;18.19;49.49;100250.87;1654988;86;27348;-70
2022/05/14 09:53:41;;;;;;;10.82;2.92;;;;;;;18.15;48.98;100259.60;1646516;87;25490;-68
2022/05/14 09:56:19;;;;;;;13.30;3.30;;;;;;;18.02;47.32;100241.74;1636103;87;25709;-69
2022/05/14 09:59:00;;;;;;;10.50;3.00;;;;;;;17.84;46.42;100245.44;1647164;87;25644;-72
2022/05/14 10:01:36;;;;;;;7.20;2.85;;;;;;;17.98;48.96;100243.05;1656910;86;25701;-69
2022/05/14 10:04:19;;;;;;;7.75;2.25;;;;;;;18.40;47.37;100238.73;1620000;88;28852;-68
2022/05/14 10:07:00;;;;;;;7.58;2.27;;;;;;;18.70;46.82;100244.95;1606802;88;25708;-70
2022/05/14 10:09:44;;;;;;;8.25;2.60;;;;;;;18.92;45.64;100239.28;1647680;87;25716;-70
2022/05/14 10:12:32;;;;;;;7.95;2.50;;;;;;;19.23;43.44;100249.94;1605960;88;26016;-69
2022/05/14 10:15:37;;;;;;;13.00;4.05;;;;;;;19.34;42.12;100231.48;1642981;87;25716;-72
2022/05/14 10:18:15;;;;;;;15.88;7.00;;;;;;;19.91;44.34;100238.34;1621282;88;27679;-74
2022/05/14 10:21:07;;;;;;;7.12;2.42;;;;;;;20.66;43.74;100238.38;1604536;88;25845;-72
2022/05/14 10:27:02;;;;;;;11.65;2.60;;;;;;;21.20;41.14;100221.72;1630524;86;25761;-76
2022/05/14 10:29:46;;;;;;;7.22;2.60;;;;;;;21.10;40.14;100222.44;1623572;86;25708;-70
2022/05/14 10:32:17;;;;;;;6.62;2.20;;;;;;;20.93;39.71;100229.98;1600424;89;27474;-69
2022/05/14 10:34:54;;;;;;;5.83;2.12;;;;;;;20.70;39.22;100222.70;1644933;87;25515;-69
2022/05/14 10:37:50;;;;;;;9.90;2.10;;;;;;;20.55;39.14;100221.78;1635064;86;25663;-75
2022/05/14 10:40:27;;;;;;;13.08;3.25;;;;;;;20.44;38.46;100228.52;1638122;86;25654;-75
2022/05/14 10:43:05;;;;;;;6.83;2.10;;;;;;;20.28;39.12;100227.98;1642746;86;25537;-75
2022/05/14 10:45:41;;;;;;;10.00;2.98;;;;;;;20.24;39.18;100234.01;1617905;87;27426;-76
2022/05/14 10:48:31;;;;;;;6.47;2.27;;;;;;;20.13;39.06;100227.03;1605327;88;25899;-77
2022/05/14 10:51:00;;;;;;;6.65;2.42;;;;;;;20.07;38.91;100227.94;1627717;88;25768;-77
2022/05/14 10:53:27;;;;;;;7.47;2.50;;;;;;;20.04;39.10;100216.35;1607820;88;26340;-76
2022/05/14 10:56:05;;;;;;;8.85;2.58;;;;;;;20.00;39.16;100210.61;1642793;87;25674;-76
2022/05/14 10:58:39;;;;;;;5.72;2.45;;;;;;;20.01;39.30;100221.81;1629631;88;27460;-73
2022/05/14 11:01:29;;;;;;;7.75;2.72;;;;;;;19.89;38.89;100219.51;1628093;86;25787;-73
2022/05/14 11:04:13;;;;;;;6.08;2.25;;;;;;;19.73;38.76;100210.64;1651010;86;25645;-71
2022/05/14 11:07:00;;;;;;;10.55;2.45;;;;;;;19.59;38.96;100214.78;1535821;93;25818;-75
2022/05/14 11:09:46;;;;;;;8.13;2.47;;;;;;;19.56;39.33;100217.48;1557762;91;25766;-75
2022/05/14 11:12:21;;;;;;;4.20;2.10;;;;;;;19.55;39.38;100213.17;1558118;91;27362;-71
2022/05/14 11:14:52;;;;;;;6.00;2.30;;;;;;;19.56;39.19;100220.23;1518034;93;26594;-73
2022/05/14 11:17:29;;;;;;;3.42;2.05;;;;;;;19.50;38.88;100225.25;1538771;93;25807;-74
2022/05/14 11:20:12;;;;;;;6.90;2.30;;;;;;;19.40;39.42;100221.20;1538817;93;26153;-72
2022/05/14 11:22:44;;;;;;;7.70;2.10;;;;;;;19.27;39.31;100223.16;1543816;91;25796;-70
2022/05/14 11:25:25;;;;;;;7.55;2.20;;;;;;;19.16;39.43;100223.01;1559731;91;27495;-69
2022/05/14 11:28:07;;;;;;;8.08;2.37;;;;;;;19.10;39.58;100227.22;1557497;91;27204;-70
2022/05/14 11:30:47;;;;;;;4.10;1.87;;;;;;;19.07;40.10;100220.53;1560033;91;25875;-69
2022/05/14 11:33:28;;;;;;;5.47;2.87;;;;;;;19.25;39.71;100220.00;1558136;91;26717;-70
2022/05/14 11:36:03;;;;;;;8.68;2.72;;;;;;;19.38;39.76;100230.37;1560036;91;26375;-67
2022/05/14 11:38:36;;;;;;;9.10;2.52;;;;;;;19.57;40.14;100222.60;1557580;91;28091;-67
2022/05/14 11:41:13;;;;;;;4.03;2.30;;;;;;;19.84;39.97;100214.35;1558200;91;25548;-69
2022/05/14 11:43:46;;;;;;;12.55;2.77;;;;;;;20.01;39.68;100221.81;1583940;88;26429;-73
2022/05/14 11:46:44;;;;;;;6.72;2.25;;;;;;;20.15;39.62;100226.85;1623898;88;26355;-72
2022/05/14 11:49:20;;;;;;;9.63;3.00;;;;;;;20.20;39.08;100224.95;1624367;87;25797;-71
2022/05/14 11:52:10;;;;;;;8.63;2.33;;;;;;;20.11;38.76;100226.63;1624108;88;27472;-70
2022/05/14 11:54:57;;;;;;;9.58;2.12;;;;;;;20.01;38.48;100229.45;1623925;88;25453;-69
2022/05/14 11:57:36;;;;;;;10.28;3.22;;;;;;;19.80;38.70;100227.81;1624281;88;25433;-71